sensor_id;sensor_type;location;lat;lon;timestamp;P1;durP1;ratioP1;P2;durP2;ratioP2
4821;SDS011;2425;47.794;13.068;2023-04-06T00:00:09;1.60;;;1.60;;
4821;SDS011;2425;47.794;13.068;2023-04-06T00:02:37;1.57;;;1.50;;
4821;SDS011;2425;47.794;13.068;2023-04-06T00:05:04;2.80;;;1.80;;
4821;SDS011;2425;47.794;13.068;2023-04-06T00:07:33;2.20;;;2.00;;
4821;SDS011;2425;47.794;13.068;2023-04-06T00:10:00;1.97;;;1.87;;
4821;SDS011;2425;47.794;13.068;2023-04-06T00:12:29;2.40;;;1.80;;
4821;SDS011;2425;47.794;13.068;2023-04-06T00:14:56;2.50;;;2.00;;
4821;SDS011;2425;47.794;13.068;2023-04-06T00:17:22;1.93;;;1.83;;
4821;SDS011;2425;47.794;13.068;2023-04-06T00:19:49;1.80;;;1.70;;
4821;SDS011;2425;47.794;13.068;2023-04-06T00:22:16;2.63;;;1.90;;
4821;SDS011;2425;47.794;13.068;2023-04-06T00:24:43;1.80;;;1.70;;
4821;SDS011;2425;47.794;13.068;2023-04-06T00:27:10;1.93;;;1.77;;
4821;SDS011;2425;47.794;13.068;2023-04-06T00:29:38;1.73;;;1.70;;
4821;SDS011;2425;47.794;13.068;2023-04-06T00:32:06;1.67;;;1.57;;
4821;SDS011;2425;47.794;13.068;2023-04-06T00:34:32;1.80;;;1.73;;
4821;SDS011;2425;47.794;13.068;2023-04-06T00:36:59;2.20;;;1.63;;
4821;SDS011;2425;47.794;13.068;2023-04-06T00:39:26;1.90;;;1.87;;
4821;SDS011;2425;47.794;13.068;2023-04-06T00:41:53;1.40;;;1.40;;
4821;SDS011;2425;47.794;13.068;2023-04-06T00:44:20;2.27;;;2.17;;
4821;SDS011;2425;47.794;13.068;2023-04-06T00:46:49;2.13;;;1.73;;
4821;SDS011;2425;47.794;13.068;2023-04-06T00:49:16;2.00;;;1.90;;
4821;SDS011;2425;47.794;13.068;2023-04-06T00:51:43;1.83;;;1.73;;
4821;SDS011;2425;47.794;13.068;2023-04-06T00:54:10;1.90;;;1.80;;
4821;SDS011;2425;47.794;13.068;2023-04-06T00:56:37;1.47;;;1.47;;
4821;SDS011;2425;47.794;13.068;2023-04-06T00:59:03;1.87;;;1.87;;
4821;SDS011;2425;47.794;13.068;2023-04-06T01:01:30;2.07;;;1.97;;
4821;SDS011;2425;47.794;13.068;2023-04-06T01:03:59;1.93;;;1.83;;
4821;SDS011;2425;47.794;13.068;2023-04-06T01:06:27;1.53;;;1.43;;
4821;SDS011;2425;47.794;13.068;2023-04-06T01:08:54;1.77;;;1.67;;
4821;SDS011;2425;47.794;13.068;2023-04-06T01:11:21;1.80;;;1.70;;
4821;SDS011;2425;47.794;13.068;2023-04-06T01:13:48;1.40;;;1.40;;
4821;SDS011;2425;47.794;13.068;2023-04-06T01:16:15;3.37;;;1.43;;
4821;SDS011;2425;47.794;13.068;2023-04-06T01:18:42;1.93;;;1.83;;
4821;SDS011;2425;47.794;13.068;2023-04-06T01:21:10;1.40;;;1.40;;
4821;SDS011;2425;47.794;13.068;2023-04-06T01:23:42;1.57;;;1.57;;
4821;SDS011;2425;47.794;13.068;2023-04-06T01:26:10;2.03;;;1.93;;
4821;SDS011;2425;47.794;13.068;2023-04-06T01:28:37;1.30;;;1.30;;
4821;SDS011;2425;47.794;13.068;2023-04-06T01:31:04;1.47;;;1.47;;
4821;SDS011;2425;47.794;13.068;2023-04-06T01:33:31;1.80;;;1.70;;
4821;SDS011;2425;47.794;13.068;2023-04-06T01:35:58;1.60;;;1.50;;
4821;SDS011;2425;47.794;13.068;2023-04-06T01:38:25;1.90;;;1.80;;
4821;SDS011;2425;47.794;13.068;2023-04-06T01:40:53;1.70;;;1.60;;
4821;SDS011;2425;47.794;13.068;2023-04-06T01:43:20;1.80;;;1.80;;
4821;SDS011;2425;47.794;13.068;2023-04-06T01:45:47;1.60;;;1.50;;
4821;SDS011;2425;47.794;13.068;2023-04-06T01:48:14;1.63;;;1.53;;
4821;SDS011;2425;47.794;13.068;2023-04-06T01:50:41;1.27;;;1.23;;
4821;SDS011;2425;47.794;13.068;2023-04-06T01:53:08;1.47;;;1.47;;
4821;SDS011;2425;47.794;13.068;2023-04-06T01:55:35;2.10;;;2.00;;
4821;SDS011;2425;47.794;13.068;2023-04-06T01:58:03;1.97;;;1.87;;
4821;SDS011;2425;47.794;13.068;2023-04-06T02:00:30;1.40;;;1.40;;
4821;SDS011;2425;47.794;13.068;2023-04-06T02:02:57;2.10;;;1.57;;
4821;SDS011;2425;47.794;13.068;2023-04-06T02:05:24;1.40;;;1.30;;
4821;SDS011;2425;47.794;13.068;2023-04-06T02:07:51;2.20;;;1.83;;
4821;SDS011;2425;47.794;13.068;2023-04-06T02:10:18;1.80;;;1.70;;
4821;SDS011;2425;47.794;13.068;2023-04-06T02:12:45;1.40;;;1.40;;
4821;SDS011;2425;47.794;13.068;2023-04-06T02:15:13;1.80;;;1.70;;
4821;SDS011;2425;47.794;13.068;2023-04-06T02:17:40;1.60;;;1.50;;
4821;SDS011;2425;47.794;13.068;2023-04-06T02:20:07;1.53;;;1.53;;
4821;SDS011;2425;47.794;13.068;2023-04-06T02:22:35;1.60;;;1.50;;
4821;SDS011;2425;47.794;13.068;2023-04-06T02:25:02;2.50;;;1.70;;
4821;SDS011;2425;47.794;13.068;2023-04-06T02:27:29;1.40;;;1.40;;
4821;SDS011;2425;47.794;13.068;2023-04-06T02:29:56;1.53;;;1.47;;
4821;SDS011;2425;47.794;13.068;2023-04-06T02:32:24;2.50;;;1.60;;
4821;SDS011;2425;47.794;13.068;2023-04-06T02:34:51;1.20;;;1.20;;
4821;SDS011;2425;47.794;13.068;2023-04-06T02:37:18;1.50;;;1.50;;
4821;SDS011;2425;47.794;13.068;2023-04-06T02:39:45;2.30;;;1.40;;
4821;SDS011;2425;47.794;13.068;2023-04-06T02:42:11;1.43;;;1.43;;
4821;SDS011;2425;47.794;13.068;2023-04-06T02:44:40;1.63;;;1.63;;
4821;SDS011;2425;47.794;13.068;2023-04-06T02:47:07;1.67;;;1.57;;
4821;SDS011;2425;47.794;13.068;2023-04-06T02:49:35;1.37;;;1.37;;
4821;SDS011;2425;47.794;13.068;2023-04-06T02:52:02;1.40;;;1.40;;
4821;SDS011;2425;47.794;13.068;2023-04-06T02:54:29;1.27;;;1.27;;
4821;SDS011;2425;47.794;13.068;2023-04-06T02:56:55;1.20;;;1.20;;
4821;SDS011;2425;47.794;13.068;2023-04-06T02:59:22;1.30;;;1.30;;
4821;SDS011;2425;47.794;13.068;2023-04-06T03:01:49;1.23;;;1.23;;
4821;SDS011;2425;47.794;13.068;2023-04-06T03:04:16;1.07;;;1.07;;
4821;SDS011;2425;47.794;13.068;2023-04-06T03:06:44;1.27;;;1.27;;
4821;SDS011;2425;47.794;13.068;2023-04-06T03:09:11;2.10;;;1.37;;
4821;SDS011;2425;47.794;13.068;2023-04-06T03:11:39;1.20;;;1.10;;
4821;SDS011;2425;47.794;13.068;2023-04-06T03:14:06;1.37;;;1.37;;
4821;SDS011;2425;47.794;13.068;2023-04-06T03:16:32;1.50;;;1.40;;
4821;SDS011;2425;47.794;13.068;2023-04-06T03:18:59;1.47;;;1.43;;
4821;SDS011;2425;47.794;13.068;2023-04-06T03:21:26;1.40;;;1.40;;
4821;SDS011;2425;47.794;13.068;2023-04-06T03:23:54;1.40;;;1.30;;
4821;SDS011;2425;47.794;13.068;2023-04-06T03:26:21;1.13;;;1.13;;
4821;SDS011;2425;47.794;13.068;2023-04-06T03:28:48;1.20;;;1.20;;
4821;SDS011;2425;47.794;13.068;2023-04-06T03:31:15;1.23;;;1.23;;
4821;SDS011;2425;47.794;13.068;2023-04-06T03:33:42;1.20;;;1.20;;
4821;SDS011;2425;47.794;13.068;2023-04-06T03:36:08;2.67;;;1.37;;
4821;SDS011;2425;47.794;13.068;2023-04-06T03:38:35;1.20;;;1.20;;
4821;SDS011;2425;47.794;13.068;2023-04-06T03:41:04;1.27;;;1.27;;
4821;SDS011;2425;47.794;13.068;2023-04-06T03:43:31;1.43;;;1.33;;
4821;SDS011;2425;47.794;13.068;2023-04-06T03:45:57;1.50;;;1.33;;
4821;SDS011;2425;47.794;13.068;2023-04-06T03:48:24;1.13;;;1.13;;
4821;SDS011;2425;47.794;13.068;2023-04-06T03:50:51;1.50;;;1.43;;
4821;SDS011;2425;47.794;13.068;2023-04-06T03:53:18;1.70;;;1.60;;
4821;SDS011;2425;47.794;13.068;2023-04-06T03:55:45;1.43;;;1.33;;
4821;SDS011;2425;47.794;13.068;2023-04-06T03:58:13;1.37;;;1.37;;
4821;SDS011;2425;47.794;13.068;2023-04-06T04:00:40;1.50;;;1.40;;
4821;SDS011;2425;47.794;13.068;2023-04-06T04:03:07;1.37;;;1.00;;
4821;SDS011;2425;47.794;13.068;2023-04-06T04:05:34;1.20;;;1.20;;
4821;SDS011;2425;47.794;13.068;2023-04-06T04:08:01;1.17;;;1.07;;
4821;SDS011;2425;47.794;13.068;2023-04-06T04:10:28;1.30;;;1.20;;
4821;SDS011;2425;47.794;13.068;2023-04-06T04:12:54;1.37;;;1.33;;
4821;SDS011;2425;47.794;13.068;2023-04-06T04:15:23;1.00;;;1.00;;
4821;SDS011;2425;47.794;13.068;2023-04-06T04:17:50;1.47;;;1.47;;
4821;SDS011;2425;47.794;13.068;2023-04-06T04:20:16;1.40;;;1.40;;
4821;SDS011;2425;47.794;13.068;2023-04-06T04:22:43;11.03;;;2.50;;
4821;SDS011;2425;47.794;13.068;2023-04-06T04:25:10;1.30;;;1.30;;
4821;SDS011;2425;47.794;13.068;2023-04-06T04:27:37;1.20;;;1.20;;
4821;SDS011;2425;47.794;13.068;2023-04-06T04:30:05;2.73;;;1.50;;
4821;SDS011;2425;47.794;13.068;2023-04-06T04:32:33;1.30;;;1.30;;
4821;SDS011;2425;47.794;13.068;2023-04-06T04:35:00;1.17;;;1.17;;
4821;SDS011;2425;47.794;13.068;2023-04-06T04:37:27;1.40;;;1.30;;
4821;SDS011;2425;47.794;13.068;2023-04-06T04:39:54;1.30;;;1.13;;
4821;SDS011;2425;47.794;13.068;2023-04-06T04:42:21;7.43;;;1.30;;
4821;SDS011;2425;47.794;13.068;2023-04-06T04:44:48;1.33;;;1.33;;
4821;SDS011;2425;47.794;13.068;2023-04-06T04:47:15;1.40;;;1.30;;
4821;SDS011;2425;47.794;13.068;2023-04-06T04:49:43;1.30;;;1.30;;
4821;SDS011;2425;47.794;13.068;2023-04-06T04:52:10;1.37;;;1.30;;
4821;SDS011;2425;47.794;13.068;2023-04-06T04:54:37;1.57;;;1.47;;
4821;SDS011;2425;47.794;13.068;2023-04-06T04:57:06;1.33;;;1.30;;
4821;SDS011;2425;47.794;13.068;2023-04-06T04:59:33;1.67;;;1.33;;
4821;SDS011;2425;47.794;13.068;2023-04-06T05:02:00;1.30;;;1.30;;
4821;SDS011;2425;47.794;13.068;2023-04-06T05:04:27;1.03;;;1.03;;
4821;SDS011;2425;47.794;13.068;2023-04-06T05:07:03;1.30;;;1.30;;
4821;SDS011;2425;47.794;13.068;2023-04-06T05:09:30;1.20;;;1.10;;
4821;SDS011;2425;47.794;13.068;2023-04-06T05:11:57;1.30;;;1.30;;
4821;SDS011;2425;47.794;13.068;2023-04-06T05:14:24;1.27;;;1.27;;
4821;SDS011;2425;47.794;13.068;2023-04-06T05:16:51;1.13;;;1.13;;
4821;SDS011;2425;47.794;13.068;2023-04-06T05:19:18;3.53;;;1.10;;
4821;SDS011;2425;47.794;13.068;2023-04-06T05:21:45;2.30;;;1.10;;
4821;SDS011;2425;47.794;13.068;2023-04-06T05:24:13;1.10;;;1.10;;
4821;SDS011;2425;47.794;13.068;2023-04-06T05:26:40;1.20;;;1.20;;
4821;SDS011;2425;47.794;13.068;2023-04-06T05:29:07;1.87;;;1.30;;
4821;SDS011;2425;47.794;13.068;2023-04-06T05:31:34;1.50;;;1.50;;
4821;SDS011;2425;47.794;13.068;2023-04-06T05:34:00;1.00;;;1.00;;
4821;SDS011;2425;47.794;13.068;2023-04-06T05:36:27;1.07;;;0.97;;
4821;SDS011;2425;47.794;13.068;2023-04-06T05:38:55;1.13;;;1.03;;
4821;SDS011;2425;47.794;13.068;2023-04-06T05:41:24;1.00;;;1.00;;
4821;SDS011;2425;47.794;13.068;2023-04-06T05:43:51;1.20;;;1.20;;
4821;SDS011;2425;47.794;13.068;2023-04-06T05:46:18;1.10;;;1.10;;
4821;SDS011;2425;47.794;13.068;2023-04-06T05:48:45;2.00;;;0.90;;
4821;SDS011;2425;47.794;13.068;2023-04-06T05:51:11;1.00;;;1.00;;
4821;SDS011;2425;47.794;13.068;2023-04-06T05:53:38;1.10;;;1.10;;
4821;SDS011;2425;47.794;13.068;2023-04-06T05:56:05;0.90;;;0.90;;
4821;SDS011;2425;47.794;13.068;2023-04-06T05:58:34;5.30;;;1.10;;
4821;SDS011;2425;47.794;13.068;2023-04-06T06:01:01;1.50;;;1.40;;
4821;SDS011;2425;47.794;13.068;2023-04-06T06:03:28;2.33;;;1.40;;
4821;SDS011;2425;47.794;13.068;2023-04-06T06:05:59;1.23;;;1.23;;
4821;SDS011;2425;47.794;13.068;2023-04-06T06:08:26;1.13;;;1.13;;
4821;SDS011;2425;47.794;13.068;2023-04-06T06:10:53;1.00;;;1.00;;
4821;SDS011;2425;47.794;13.068;2023-04-06T06:13:20;1.50;;;1.20;;
4821;SDS011;2425;47.794;13.068;2023-04-06T06:15:48;1.30;;;1.30;;
4821;SDS011;2425;47.794;13.068;2023-04-06T06:18:17;1.20;;;1.20;;
4821;SDS011;2425;47.794;13.068;2023-04-06T06:20:44;1.33;;;1.33;;
4821;SDS011;2425;47.794;13.068;2023-04-06T06:23:11;1.23;;;1.23;;
4821;SDS011;2425;47.794;13.068;2023-04-06T06:25:38;1.60;;;1.50;;
4821;SDS011;2425;47.794;13.068;2023-04-06T06:28:05;1.20;;;1.20;;
4821;SDS011;2425;47.794;13.068;2023-04-06T06:30:32;1.20;;;1.20;;
4821;SDS011;2425;47.794;13.068;2023-04-06T06:33:00;1.20;;;1.20;;
4821;SDS011;2425;47.794;13.068;2023-04-06T06:35:28;1.20;;;1.20;;
4821;SDS011;2425;47.794;13.068;2023-04-06T06:37:55;3.63;;;1.87;;
4821;SDS011;2425;47.794;13.068;2023-04-06T06:40:22;4.47;;;1.40;;
4821;SDS011;2425;47.794;13.068;2023-04-06T06:42:51;2.57;;;1.50;;
4821;SDS011;2425;47.794;13.068;2023-04-06T06:45:17;3.13;;;1.53;;
4821;SDS011;2425;47.794;13.068;2023-04-06T06:47:45;6.40;;;1.83;;
4821;SDS011;2425;47.794;13.068;2023-04-06T06:50:13;3.70;;;1.40;;
4821;SDS011;2425;47.794;13.068;2023-04-06T06:52:40;2.83;;;1.10;;
4821;SDS011;2425;47.794;13.068;2023-04-06T06:55:08;8.77;;;2.03;;
4821;SDS011;2425;47.794;13.068;2023-04-06T06:57:36;9.43;;;1.87;;
4821;SDS011;2425;47.794;13.068;2023-04-06T07:00:03;2.77;;;1.43;;
4821;SDS011;2425;47.794;13.068;2023-04-06T07:02:33;1.10;;;1.03;;
4821;SDS011;2425;47.794;13.068;2023-04-06T07:05:00;1.40;;;1.30;;
4821;SDS011;2425;47.794;13.068;2023-04-06T07:07:29;9.83;;;1.60;;
4821;SDS011;2425;47.794;13.068;2023-04-06T07:09:56;5.83;;;1.20;;
4821;SDS011;2425;47.794;13.068;2023-04-06T07:12:23;1.30;;;1.30;;
4821;SDS011;2425;47.794;13.068;2023-04-06T07:14:49;2.00;;;1.80;;
4821;SDS011;2425;47.794;13.068;2023-04-06T07:17:16;2.57;;;1.17;;
4821;SDS011;2425;47.794;13.068;2023-04-06T07:19:43;2.33;;;1.50;;
4821;SDS011;2425;47.794;13.068;2023-04-06T07:22:10;4.67;;;1.20;;
4821;SDS011;2425;47.794;13.068;2023-04-06T07:24:38;1.50;;;1.50;;
4821;SDS011;2425;47.794;13.068;2023-04-06T07:27:05;1.70;;;1.60;;
4821;SDS011;2425;47.794;13.068;2023-04-06T07:29:32;2.40;;;1.10;;
4821;SDS011;2425;47.794;13.068;2023-04-06T07:31:59;1.40;;;1.30;;
4821;SDS011;2425;47.794;13.068;2023-04-06T07:34:26;6.90;;;1.40;;
4821;SDS011;2425;47.794;13.068;2023-04-06T07:36:53;1.07;;;1.07;;
4821;SDS011;2425;47.794;13.068;2023-04-06T07:39:21;1.57;;;1.40;;
4821;SDS011;2425;47.794;13.068;2023-04-06T07:41:50;1.10;;;1.10;;
4821;SDS011;2425;47.794;13.068;2023-04-06T07:44:17;4.27;;;1.30;;
4821;SDS011;2425;47.794;13.068;2023-04-06T07:46:43;2.73;;;1.20;;
4821;SDS011;2425;47.794;13.068;2023-04-06T07:49:10;4.63;;;1.47;;
4821;SDS011;2425;47.794;13.068;2023-04-06T07:51:37;1.17;;;1.07;;
4821;SDS011;2425;47.794;13.068;2023-04-06T07:54:04;1.90;;;1.13;;
4821;SDS011;2425;47.794;13.068;2023-04-06T07:56:31;1.33;;;1.20;;
4821;SDS011;2425;47.794;13.068;2023-04-06T07:59:00;1.23;;;1.13;;
4821;SDS011;2425;47.794;13.068;2023-04-06T08:01:28;2.57;;;1.50;;
4821;SDS011;2425;47.794;13.068;2023-04-06T08:03:55;1.70;;;1.40;;
4821;SDS011;2425;47.794;13.068;2023-04-06T08:06:22;2.70;;;1.33;;
4821;SDS011;2425;47.794;13.068;2023-04-06T08:08:49;1.47;;;1.27;;
4821;SDS011;2425;47.794;13.068;2023-04-06T08:11:15;1.37;;;1.37;;
4821;SDS011;2425;47.794;13.068;2023-04-06T08:13:42;1.07;;;1.00;;
4821;SDS011;2425;47.794;13.068;2023-04-06T08:16:11;1.07;;;1.07;;
4821;SDS011;2425;47.794;13.068;2023-04-06T08:18:38;1.13;;;1.13;;
4821;SDS011;2425;47.794;13.068;2023-04-06T08:21:06;1.23;;;1.10;;
4821;SDS011;2425;47.794;13.068;2023-04-06T08:23:33;1.07;;;1.07;;
4821;SDS011;2425;47.794;13.068;2023-04-06T08:26:00;1.80;;;0.97;;
4821;SDS011;2425;47.794;13.068;2023-04-06T08:28:26;1.00;;;1.00;;
4821;SDS011;2425;47.794;13.068;2023-04-06T08:30:53;4.63;;;1.90;;
4821;SDS011;2425;47.794;13.068;2023-04-06T08:33:22;2.60;;;1.30;;
4821;SDS011;2425;47.794;13.068;2023-04-06T08:35:48;2.93;;;1.30;;
4821;SDS011;2425;47.794;13.068;2023-04-06T08:38:15;1.37;;;1.23;;
4821;SDS011;2425;47.794;13.068;2023-04-06T08:40:42;3.57;;;1.33;;
4821;SDS011;2425;47.794;13.068;2023-04-06T08:43:12;5.23;;;1.70;;
4821;SDS011;2425;47.794;13.068;2023-04-06T08:45:40;1.47;;;1.37;;
4821;SDS011;2425;47.794;13.068;2023-04-06T08:48:08;5.73;;;1.57;;
4821;SDS011;2425;47.794;13.068;2023-04-06T08:50:37;13.23;;;1.33;;
4821;SDS011;2425;47.794;13.068;2023-04-06T08:53:04;9.20;;;1.73;;
4821;SDS011;2425;47.794;13.068;2023-04-06T08:55:32;2.20;;;1.13;;
4821;SDS011;2425;47.794;13.068;2023-04-06T08:57:59;1.70;;;1.30;;
4821;SDS011;2425;47.794;13.068;2023-04-06T09:00:27;1.30;;;1.30;;
4821;SDS011;2425;47.794;13.068;2023-04-06T09:02:54;5.73;;;5.23;;
4821;SDS011;2425;47.794;13.068;2023-04-06T09:05:23;4.97;;;2.73;;
4821;SDS011;2425;47.794;13.068;2023-04-06T09:07:52;3.47;;;2.07;;
4821;SDS011;2425;47.794;13.068;2023-04-06T09:10:19;1.90;;;1.80;;
4821;SDS011;2425;47.794;13.068;2023-04-06T09:12:48;2.10;;;1.73;;
4821;SDS011;2425;47.794;13.068;2023-04-06T09:15:19;4.00;;;1.73;;
4821;SDS011;2425;47.794;13.068;2023-04-06T09:17:46;1.90;;;1.80;;
4821;SDS011;2425;47.794;13.068;2023-04-06T09:20:13;3.07;;;1.77;;
4821;SDS011;2425;47.794;13.068;2023-04-06T09:22:42;3.70;;;1.97;;
4821;SDS011;2425;47.794;13.068;2023-04-06T09:25:17;2.67;;;2.13;;
4821;SDS011;2425;47.794;13.068;2023-04-06T09:27:59;5.30;;;4.50;;
4821;SDS011;2425;47.794;13.068;2023-04-06T09:30:38;3.83;;;3.03;;
4821;SDS011;2425;47.794;13.068;2023-04-06T09:33:26;2.93;;;1.87;;
4821;SDS011;2425;47.794;13.068;2023-04-06T09:36:06;2.17;;;2.07;;
4821;SDS011;2425;47.794;13.068;2023-04-06T09:38:54;2.80;;;2.60;;
4821;SDS011;2425;47.794;13.068;2023-04-06T09:41:37;2.43;;;2.27;;
4821;SDS011;2425;47.794;13.068;2023-04-06T09:44:13;2.43;;;2.30;;
4821;SDS011;2425;47.794;13.068;2023-04-06T09:46:41;12.97;;;10.77;;
4821;SDS011;2425;47.794;13.068;2023-04-06T09:49:09;4.77;;;4.27;;
4821;SDS011;2425;47.794;13.068;2023-04-06T09:51:37;4.00;;;3.60;;
4821;SDS011;2425;47.794;13.068;2023-04-06T09:54:04;3.90;;;3.60;;
4821;SDS011;2425;47.794;13.068;2023-04-06T09:56:37;4.10;;;3.80;;
4821;SDS011;2425;47.794;13.068;2023-04-06T09:59:08;4.87;;;3.20;;
4821;SDS011;2425;47.794;13.068;2023-04-06T10:01:37;4.40;;;3.23;;
4821;SDS011;2425;47.794;13.068;2023-04-06T10:04:07;4.33;;;3.50;;
4821;SDS011;2425;47.794;13.068;2023-04-06T10:06:40;4.07;;;3.20;;
4821;SDS011;2425;47.794;13.068;2023-04-06T10:09:07;5.33;;;3.00;;
4821;SDS011;2425;47.794;13.068;2023-04-06T10:11:35;2.60;;;2.50;;
4821;SDS011;2425;47.794;13.068;2023-04-06T10:14:03;3.50;;;2.93;;
4821;SDS011;2425;47.794;13.068;2023-04-06T10:16:30;7.10;;;4.33;;
4821;SDS011;2425;47.794;13.068;2023-04-06T10:18:58;6.37;;;3.00;;
4821;SDS011;2425;47.794;13.068;2023-04-06T10:21:28;5.70;;;3.00;;
4821;SDS011;2425;47.794;13.068;2023-04-06T10:23:58;5.03;;;3.33;;
4821;SDS011;2425;47.794;13.068;2023-04-06T10:26:26;3.80;;;2.67;;
4821;SDS011;2425;47.794;13.068;2023-04-06T10:28:54;5.50;;;2.90;;
4821;SDS011;2425;47.794;13.068;2023-04-06T10:31:25;2.73;;;2.53;;
4821;SDS011;2425;47.794;13.068;2023-04-06T10:33:55;3.73;;;2.17;;
4821;SDS011;2425;47.794;13.068;2023-04-06T10:36:23;4.87;;;3.53;;
4821;SDS011;2425;47.794;13.068;2023-04-06T10:38:55;2.50;;;2.40;;
4821;SDS011;2425;47.794;13.068;2023-04-06T10:41:23;7.43;;;2.63;;
4821;SDS011;2425;47.794;13.068;2023-04-06T10:43:56;2.80;;;2.10;;
4821;SDS011;2425;47.794;13.068;2023-04-06T10:46:27;4.63;;;1.97;;
4821;SDS011;2425;47.794;13.068;2023-04-06T10:48:54;2.50;;;2.30;;
4821;SDS011;2425;47.794;13.068;2023-04-06T10:51:24;5.17;;;2.43;;
4821;SDS011;2425;47.794;13.068;2023-04-06T10:53:53;6.87;;;2.27;;
4821;SDS011;2425;47.794;13.068;2023-04-06T10:56:21;2.07;;;1.97;;
4821;SDS011;2425;47.794;13.068;2023-04-06T10:58:51;11.10;;;2.63;;
4821;SDS011;2425;47.794;13.068;2023-04-06T11:01:22;2.60;;;2.40;;
4821;SDS011;2425;47.794;13.068;2023-04-06T11:03:50;3.13;;;2.60;;
4821;SDS011;2425;47.794;13.068;2023-04-06T11:06:19;3.83;;;2.50;;
4821;SDS011;2425;47.794;13.068;2023-04-06T11:08:46;11.53;;;2.37;;
4821;SDS011;2425;47.794;13.068;2023-04-06T11:11:14;4.30;;;2.27;;
4821;SDS011;2425;47.794;13.068;2023-04-06T11:13:43;9.13;;;2.47;;
4821;SDS011;2425;47.794;13.068;2023-04-06T11:16:15;5.97;;;3.00;;
4821;SDS011;2425;47.794;13.068;2023-04-06T11:18:50;17.70;;;2.60;;
4821;SDS011;2425;47.794;13.068;2023-04-06T11:21:19;13.33;;;3.03;;
4821;SDS011;2425;47.794;13.068;2023-04-06T11:23:46;10.60;;;3.00;;
4821;SDS011;2425;47.794;13.068;2023-04-06T11:26:13;14.43;;;3.87;;
4821;SDS011;2425;47.794;13.068;2023-04-06T11:28:41;12.50;;;3.30;;
4821;SDS011;2425;47.794;13.068;2023-04-06T11:31:08;7.23;;;3.50;;
4821;SDS011;2425;47.794;13.068;2023-04-06T11:33:36;23.97;;;5.17;;
4821;SDS011;2425;47.794;13.068;2023-04-06T11:36:05;14.77;;;5.13;;
4821;SDS011;2425;47.794;13.068;2023-04-06T11:38:33;12.70;;;4.57;;
4821;SDS011;2425;47.794;13.068;2023-04-06T11:41:00;4.70;;;3.17;;
4821;SDS011;2425;47.794;13.068;2023-04-06T11:43:27;11.40;;;4.23;;
4821;SDS011;2425;47.794;13.068;2023-04-06T11:46:01;9.67;;;3.60;;
4821;SDS011;2425;47.794;13.068;2023-04-06T11:48:29;8.53;;;3.90;;
4821;SDS011;2425;47.794;13.068;2023-04-06T11:50:57;8.10;;;4.37;;
4821;SDS011;2425;47.794;13.068;2023-04-06T11:53:28;11.47;;;4.70;;
4821;SDS011;2425;47.794;13.068;2023-04-06T11:55:55;12.13;;;5.03;;
4821;SDS011;2425;47.794;13.068;2023-04-06T11:58:22;8.60;;;5.70;;
4821;SDS011;2425;47.794;13.068;2023-04-06T12:00:49;14.07;;;6.00;;
4821;SDS011;2425;47.794;13.068;2023-04-06T12:03:16;8.03;;;3.97;;
4821;SDS011;2425;47.794;13.068;2023-04-06T12:05:43;7.90;;;4.30;;
4821;SDS011;2425;47.794;13.068;2023-04-06T12:08:11;11.47;;;4.33;;
4821;SDS011;2425;47.794;13.068;2023-04-06T12:10:39;4.63;;;3.60;;
4821;SDS011;2425;47.794;13.068;2023-04-06T12:13:06;10.03;;;3.77;;
4821;SDS011;2425;47.794;13.068;2023-04-06T12:15:33;6.27;;;3.50;;
4821;SDS011;2425;47.794;13.068;2023-04-06T12:18:00;6.77;;;3.23;;
4821;SDS011;2425;47.794;13.068;2023-04-06T12:20:27;11.30;;;3.20;;
4821;SDS011;2425;47.794;13.068;2023-04-06T12:22:55;4.90;;;2.77;;
4821;SDS011;2425;47.794;13.068;2023-04-06T12:25:22;4.77;;;3.30;;
4821;SDS011;2425;47.794;13.068;2023-04-06T12:27:50;5.70;;;3.30;;
4821;SDS011;2425;47.794;13.068;2023-04-06T12:30:17;5.77;;;3.40;;
4821;SDS011;2425;47.794;13.068;2023-04-06T12:32:44;6.20;;;3.97;;
4821;SDS011;2425;47.794;13.068;2023-04-06T12:35:11;3.57;;;3.27;;
4821;SDS011;2425;47.794;13.068;2023-04-06T12:37:40;3.33;;;2.77;;
4821;SDS011;2425;47.794;13.068;2023-04-06T12:40:08;4.67;;;2.70;;
4821;SDS011;2425;47.794;13.068;2023-04-06T12:42:38;3.60;;;3.30;;
4821;SDS011;2425;47.794;13.068;2023-04-06T12:45:07;4.17;;;3.23;;
4821;SDS011;2425;47.794;13.068;2023-04-06T12:47:34;23.90;;;10.70;;
4821;SDS011;2425;47.794;13.068;2023-04-06T12:50:03;11.93;;;6.50;;
4821;SDS011;2425;47.794;13.068;2023-04-06T12:52:30;8.80;;;5.70;;
4821;SDS011;2425;47.794;13.068;2023-04-06T12:55:00;14.87;;;6.20;;
4821;SDS011;2425;47.794;13.068;2023-04-06T12:57:27;8.47;;;5.40;;
4821;SDS011;2425;47.794;13.068;2023-04-06T12:59:53;5.73;;;5.23;;
4821;SDS011;2425;47.794;13.068;2023-04-06T13:02:23;7.70;;;4.80;;
4821;SDS011;2425;47.794;13.068;2023-04-06T13:04:51;5.93;;;4.20;;
4821;SDS011;2425;47.794;13.068;2023-04-06T13:07:17;4.97;;;4.43;;
4821;SDS011;2425;47.794;13.068;2023-04-06T13:09:44;6.40;;;4.20;;
4821;SDS011;2425;47.794;13.068;2023-04-06T13:12:12;4.20;;;3.90;;
4821;SDS011;2425;47.794;13.068;2023-04-06T13:14:39;8.73;;;4.03;;
4821;SDS011;2425;47.794;13.068;2023-04-06T13:17:06;3.90;;;3.60;;
4821;SDS011;2425;47.794;13.068;2023-04-06T13:22:29;4.73;;;3.40;;
4821;SDS011;2425;47.794;13.068;2023-04-06T13:24:56;3.23;;;3.03;;
4821;SDS011;2425;47.794;13.068;2023-04-06T13:27:22;3.43;;;3.13;;
4821;SDS011;2425;47.794;13.068;2023-04-06T13:29:49;4.33;;;3.13;;
4821;SDS011;2425;47.794;13.068;2023-04-06T13:32:16;5.73;;;3.03;;
4821;SDS011;2425;47.794;13.068;2023-04-06T13:34:43;6.37;;;3.17;;
4821;SDS011;2425;47.794;13.068;2023-04-06T13:37:12;5.93;;;5.30;;
4821;SDS011;2425;47.794;13.068;2023-04-06T13:39:39;4.90;;;4.10;;
4821;SDS011;2425;47.794;13.068;2023-04-06T13:42:06;4.00;;;3.70;;
4821;SDS011;2425;47.794;13.068;2023-04-06T13:44:35;3.67;;;3.37;;
4821;SDS011;2425;47.794;13.068;2023-04-06T13:47:01;4.57;;;3.50;;
4821;SDS011;2425;47.794;13.068;2023-04-06T13:49:28;7.03;;;3.10;;
4821;SDS011;2425;47.794;13.068;2023-04-06T13:51:55;5.00;;;3.10;;
4821;SDS011;2425;47.794;13.068;2023-04-06T13:54:23;4.50;;;2.97;;
4821;SDS011;2425;47.794;13.068;2023-04-06T13:56:51;5.60;;;2.60;;
4821;SDS011;2425;47.794;13.068;2023-04-06T13:59:17;5.93;;;3.00;;
4821;SDS011;2425;47.794;13.068;2023-04-06T14:01:44;6.37;;;2.77;;
4821;SDS011;2425;47.794;13.068;2023-04-06T14:04:11;8.40;;;3.03;;
4821;SDS011;2425;47.794;13.068;2023-04-06T14:06:38;5.53;;;2.80;;
4821;SDS011;2425;47.794;13.068;2023-04-06T14:09:04;4.60;;;2.30;;
4821;SDS011;2425;47.794;13.068;2023-04-06T14:11:32;3.30;;;2.63;;
4821;SDS011;2425;47.794;13.068;2023-04-06T14:14:00;3.10;;;2.80;;
4821;SDS011;2425;47.794;13.068;2023-04-06T14:16:27;2.97;;;2.63;;
4821;SDS011;2425;47.794;13.068;2023-04-06T14:18:54;8.60;;;2.70;;
4821;SDS011;2425;47.794;13.068;2023-04-06T14:21:22;5.80;;;2.60;;
4821;SDS011;2425;47.794;13.068;2023-04-06T14:23:49;3.30;;;3.07;;
4821;SDS011;2425;47.794;13.068;2023-04-06T14:26:17;2.73;;;2.53;;
4821;SDS011;2425;47.794;13.068;2023-04-06T14:28:46;7.83;;;2.60;;
4821;SDS011;2425;47.794;13.068;2023-04-06T14:31:13;2.67;;;2.43;;
4821;SDS011;2425;47.794;13.068;2023-04-06T14:33:41;4.70;;;2.67;;
4821;SDS011;2425;47.794;13.068;2023-04-06T14:36:08;3.30;;;3.00;;
4821;SDS011;2425;47.794;13.068;2023-04-06T14:38:36;3.53;;;2.60;;
4821;SDS011;2425;47.794;13.068;2023-04-06T14:41:03;2.47;;;2.23;;
4821;SDS011;2425;47.794;13.068;2023-04-06T14:43:30;4.57;;;2.50;;
4821;SDS011;2425;47.794;13.068;2023-04-06T14:46:00;7.47;;;2.70;;
4821;SDS011;2425;47.794;13.068;2023-04-06T14:48:27;3.50;;;2.40;;
4821;SDS011;2425;47.794;13.068;2023-04-06T14:50:55;5.57;;;2.47;;
4821;SDS011;2425;47.794;13.068;2023-04-06T14:53:22;2.57;;;2.43;;
4821;SDS011;2425;47.794;13.068;2023-04-06T14:55:49;2.53;;;2.33;;
4821;SDS011;2425;47.794;13.068;2023-04-06T14:58:16;7.40;;;2.60;;
4821;SDS011;2425;47.794;13.068;2023-04-06T15:00:43;8.13;;;2.57;;
4821;SDS011;2425;47.794;13.068;2023-04-06T15:03:11;4.40;;;2.47;;
4821;SDS011;2425;47.794;13.068;2023-04-06T15:05:38;5.40;;;2.27;;